Nules, Spain
Current Conditions -  °F | °C
As of 9:00 PM on Saturday 20 Dec 2014 (Local Time) from LEBT Reporting Station
Broken Clouds Broken Clouds  
Wind Chill: 46°   Ceiling: 800
Heat Index: 48°   Visibility: 1.2mi
Dew Point: 46°   Wind: 5mph
Humidity: 93%   Direction: 350°N
Pressure: 30.45"   Gusts: NA
Location:  39.85°N, 0.16°W
Report Text: LEBT 202000Z AUTO 35004KT 2000 // BKN008/// 09/08 Q1031
Loading
Personal Weather Stations






























Interactive Weather Map New forecast layout! Learn more

10-Day Weather Forecast

Advertisements
Track Severe Weather on mobile